Time;durP1;ratioP1;P1;durP2;ratioP2;P2;SDS_P1;SDS_P2;PMS_P1;PMS_P2;Temp;Humidity;BMP_temperature;BMP_pressure;BME280_temperature;BME280_humidity;BME280_pressure;Samples;Min_cycle;Max_cycle;Signal;HPM_P1;HPM_P2
2022/01/15 00:00:06;;;;;;;27.40;13.18;;;0.20;99.90;;;;;;4958208;28;20031;-91
2022/01/15 00:02:31;;;;;;;32.75;12.45;;;0.20;99.90;;;;;;4958555;28;20086;-92
2022/01/15 00:04:57;;;;;;;33.15;14.30;;;0.10;99.90;;;;;;4958135;28;20035;-89
2022/01/15 00:07:23;;;;;;;30.92;13.57;;;0.10;99.90;;;;;;4957977;28;20027;-92
2022/01/15 00:09:50;;;;;;;33.42;13.07;;;0.10;99.90;;;;;;4961008;28;20047;-94
2022/01/15 00:12:16;;;;;;;27.08;12.95;;;0.10;99.90;;;;;;4961825;28;20129;-93
2022/01/15 00:14:42;;;;;;;28.70;13.70;;;0.00;99.90;;;;;;4962402;28;20034;-92
2022/01/15 00:17:15;;;;;;;30.58;15.18;;;0.00;99.90;;;;;;4962030;28;20546;-93
2022/01/15 00:19:42;;;;;;;30.77;14.02;;;0.00;99.90;;;;;;4962098;28;20023;-91
2022/01/15 00:22:14;;;;;;;35.53;16.92;;;0.00;99.90;;;;;;4961679;28;20033;-91
2022/01/15 00:24:40;;;;;;;33.92;14.20;;;0.00;99.90;;;;;;4962117;28;20151;-92
2022/01/15 00:27:06;;;;;;;30.38;14.07;;;0.00;99.90;;;;;;4961852;28;20086;-94
2022/01/15 00:29:33;;;;;;;28.40;13.27;;;0.00;99.90;;;;;;4962882;28;20075;-92
2022/01/15 00:32:00;;;;;;;32.25;14.93;;;0.00;99.90;;;;;;4961426;28;20030;-91
2022/01/15 00:34:27;;;;;;;27.08;13.02;;;0.00;99.90;;;;;;4961644;28;20023;-91
2022/01/15 00:36:52;;;;;;;31.25;13.77;;;0.00;99.90;;;;;;4961877;28;20047;-92
2022/01/15 00:39:18;;;;;;;26.00;12.80;;;0.00;99.90;;;;;;4962435;28;20027;-92
2022/01/15 00:41:44;;;;;;;29.88;13.93;;;0.00;99.90;;;;;;4962101;28;20053;-92
2022/01/15 00:44:10;;;;;;;30.88;13.02;;;0.10;99.90;;;;;;4962304;28;20122;-92
2022/01/15 00:46:35;;;;;;;26.35;13.00;;;0.00;99.90;;;;;;4963053;28;20046;-92
2022/01/15 00:49:01;;;;;;;40.25;17.63;;;0.00;99.90;;;;;;4964992;28;20027;-92
2022/01/15 00:51:27;;;;;;;30.98;13.75;;;-0.10;99.90;;;;;;4969114;28;20118;-92
2022/01/15 00:53:53;;;;;;;30.38;14.13;;;-0.10;99.90;;;;;;4968160;28;20112;-92
2022/01/15 00:56:19;;;;;;;29.30;13.30;;;-0.10;99.90;;;;;;4964763;28;20026;-92
2022/01/15 00:58:44;;;;;;;29.95;13.20;;;-0.10;99.90;;;;;;4961655;28;20069;-92
2022/01/15 01:01:10;;;;;;;29.95;15.38;;;-0.10;99.90;;;;;;4967615;28;20030;-93
2022/01/15 01:03:36;;;;;;;33.83;15.07;;;-0.10;99.90;;;;;;4967269;28;20041;-94
2022/01/15 01:06:02;;;;;;;34.83;15.95;;;-0.10;99.90;;;;;;4971310;28;20062;-94
2022/01/15 01:08:27;;;;;;;42.60;17.77;;;-0.20;99.90;;;;;;4971313;28;20019;-95
2022/01/15 01:10:57;;;;;;;31.90;14.13;;;-0.20;99.90;;;;;;4962129;28;20564;-93
2022/01/15 01:24:05;;;;;;;38.05;16.25;;;-0.30;99.90;;;;;;4996629;28;20031;-92
2022/01/15 01:26:41;;;;;;;35.88;16.70;;;-0.30;99.90;;;;;;4982545;28;20033;-93
2022/01/15 01:31:55;;;;;;;29.40;14.25;;;-0.40;99.90;;;;;;4987665;28;20030;-94
2022/01/15 01:34:23;;;;;;;37.50;16.40;;;-0.30;99.90;;;;;;4965602;28;20038;-93
2022/01/15 01:37:31;;;;;;;33.88;14.57;;;-0.40;99.90;;;;;;4965270;28;20056;-92
2022/01/15 01:39:55;;;;;;;31.25;13.48;;;-0.40;99.90;;;;;;4977660;28;20504;-92
2022/01/15 01:45:18;;;;;;;32.85;14.18;;;-0.40;99.90;;;;;;4979955;28;20042;-92
2022/01/15 01:47:44;;;;;;;29.40;13.10;;;-0.40;99.90;;;;;;4964007;28;20027;-92
2022/01/15 01:50:20;;;;;;;29.92;13.27;;;-0.40;99.90;;;;;;4965431;28;20523;-92
2022/01/15 01:52:48;;;;;;;35.60;14.40;;;-0.40;99.90;;;;;;4962986;28;20031;-93
2022/01/15 01:55:16;;;;;;;35.35;14.10;;;-0.40;99.90;;;;;;4962491;28;20081;-92
2022/01/15 01:57:43;;;;;;;33.50;14.98;;;-0.40;99.90;;;;;;4963154;28;20423;-93
2022/01/15 02:00:12;;;;;;;38.90;16.60;;;-0.40;99.90;;;;;;4964500;28;20031;-93
2022/01/15 02:02:38;;;;;;;42.63;16.55;;;-0.50;99.90;;;;;;4964047;28;20019;-94
2022/01/15 02:05:04;;;;;;;33.22;13.88;;;-0.50;99.90;;;;;;4963808;28;20045;-94
2022/01/15 02:07:30;;;;;;;32.72;15.10;;;-0.50;99.90;;;;;;4964296;28;20034;-94
2022/01/15 02:09:58;;;;;;;32.72;14.73;;;-0.50;99.90;;;;;;4963686;28;20047;-94
2022/01/15 02:12:24;;;;;;;31.15;14.48;;;-0.50;99.90;;;;;;4965509;28;20117;-94
2022/01/15 02:14:50;;;;;;;31.77;13.65;;;-0.50;99.90;;;;;;4965857;28;20027;-93
2022/01/15 02:17:19;;;;;;;31.92;14.23;;;-0.50;99.90;;;;;;4964373;28;20031;-93
2022/01/15 02:25:12;;;;;;;28.42;13.93;;;-0.50;99.90;;;;;;4978393;28;20046;-92
2022/01/15 02:27:38;;;;;;;30.33;15.05;;;-0.50;99.90;;;;;;4960964;28;20390;-93
2022/01/15 02:30:04;;;;;;;31.90;14.20;;;-0.50;99.90;;;;;;4961282;28;20031;-93
2022/01/15 02:32:34;;;;;;;27.52;13.60;;;-0.50;99.90;;;;;;4963001;28;20110;-93
2022/01/15 02:35:02;;;;;;;20.88;9.57;;;-0.60;99.90;;;;;;4963614;28;20509;-94
2022/01/15 02:37:30;;;;;;;29.88;12.68;;;-0.60;99.90;;;;;;4965197;28;20039;-94
2022/01/15 02:39:58;;;;;;;26.63;11.85;;;-0.60;99.90;;;;;;4962482;28;20117;-94
2022/01/15 02:42:27;;;;;;;29.38;12.15;;;-0.50;99.90;;;;;;4963669;28;20030;-93
2022/01/15 02:44:59;;;;;;;31.05;13.20;;;-0.50;99.90;;;;;;4950578;28;20066;-93
2022/01/15 02:50:10;;;;;;;32.80;13.73;;;-0.50;99.90;;;;;;4991671;28;20069;-93
2022/01/15 02:52:36;;;;;;;34.03;13.93;;;-0.60;99.90;;;;;;4979904;28;20027;-94
2022/01/15 02:55:02;;;;;;;32.28;15.13;;;-0.60;99.90;;;;;;4979200;28;20054;-94
2022/01/15 02:57:28;;;;;;;34.58;15.57;;;-0.50;99.90;;;;;;4966909;28;20066;-92
2022/01/15 02:59:54;;;;;;;36.63;15.70;;;-0.60;99.90;;;;;;4964712;28;20035;-94
2022/01/15 03:02:19;;;;;;;36.55;14.35;;;-0.60;99.90;;;;;;4979930;28;20030;-94
2022/01/15 03:04:45;;;;;;;28.58;13.55;;;-0.60;99.90;;;;;;4961758;28;20042;-95
2022/01/15 03:07:11;;;;;;;35.72;14.70;;;-0.60;99.90;;;;;;4960173;28;20034;-91
2022/01/15 03:09:39;;;;;;;32.67;13.18;;;-0.70;99.90;;;;;;4960191;28;20477;-95
2022/01/15 03:12:06;;;;;;;31.13;13.40;;;-0.70;99.90;;;;;;4960967;28;20034;-94
2022/01/15 03:14:31;;;;;;;30.08;12.32;;;-0.70;99.90;;;;;;4960605;28;20054;-94
2022/01/15 03:16:57;;;;;;;31.30;13.80;;;-0.80;99.90;;;;;;4964953;28;20039;-95
2022/01/15 03:19:23;;;;;;;30.42;13.73;;;-0.70;99.90;;;;;;4972026;28;20030;-92
2022/01/15 03:21:49;;;;;;;29.65;12.57;;;-0.70;99.90;;;;;;4980170;28;20033;-93
2022/01/15 03:24:15;;;;;;;28.42;12.57;;;-0.70;99.90;;;;;;4973162;28;20027;-94
2022/01/15 03:26:40;;;;;;;32.13;13.23;;;-0.60;99.90;;;;;;4967344;28;20034;-94
2022/01/15 03:29:06;;;;;;;29.25;13.13;;;-0.60;99.90;;;;;;4964699;28;20117;-94
2022/01/15 03:31:32;;;;;;;30.13;13.80;;;-0.70;99.90;;;;;;4963070;28;20034;-92
2022/01/15 03:33:57;;;;;;;32.00;15.15;;;-0.70;99.90;;;;;;4960574;28;20026;-92
2022/01/15 03:36:23;;;;;;;32.95;15.70;;;-0.60;99.90;;;;;;4958950;28;20388;-93
2022/01/15 03:38:49;;;;;;;36.75;15.23;;;-0.70;99.90;;;;;;4959316;28;20041;-92
2022/01/15 03:41:15;;;;;;;37.03;15.60;;;-0.70;99.90;;;;;;4958741;28;20027;-92
2022/01/15 03:43:40;;;;;;;43.45;16.90;;;-0.80;99.90;;;;;;4958053;28;20124;-92
2022/01/15 03:46:06;;;;;;;34.58;16.42;;;-0.80;99.90;;;;;;4958624;28;20035;-93
2022/01/15 03:48:32;;;;;;;35.67;15.07;;;-0.90;99.90;;;;;;4958802;28;20031;-92
2022/01/15 03:50:58;;;;;;;36.40;15.38;;;-0.90;99.90;;;;;;4958653;28;20122;-93
2022/01/15 03:53:24;;;;;;;31.40;15.02;;;-0.90;99.90;;;;;;4959088;28;20082;-92
2022/01/15 03:55:50;;;;;;;39.95;15.63;;;-1.00;99.90;;;;;;4960225;28;20037;-94
2022/01/15 03:58:16;;;;;;;34.63;15.07;;;-1.00;99.90;;;;;;4974247;28;20034;-90
2022/01/15 04:00:42;;;;;;;37.28;15.65;;;-1.00;99.90;;;;;;4977845;28;20023;-93
2022/01/15 04:03:08;;;;;;;32.65;14.75;;;-1.00;99.90;;;;;;4978392;28;20168;-92
2022/01/15 04:05:34;;;;;;;36.85;14.00;;;-1.00;99.90;;;;;;4968064;28;20125;-92
2022/01/15 04:08:00;;;;;;;37.35;15.73;;;-1.10;99.90;;;;;;4965030;28;20054;-94
2022/01/15 04:10:26;;;;;;;38.95;15.57;;;-1.10;99.90;;;;;;4974223;28;20076;-93
2022/01/15 04:12:52;;;;;;;39.65;16.25;;;-1.10;99.90;;;;;;4974694;28;20023;-93
2022/01/15 04:15:18;;;;;;;38.75;14.38;;;-1.00;99.90;;;;;;4974473;28;20026;-93
2022/01/15 04:17:46;;;;;;;30.65;14.23;;;-1.00;99.90;;;;;;4974086;28;20555;-91
2022/01/15 04:20:17;;;;;;;34.90;14.95;;;-1.00;99.90;;;;;;4974127;28;20062;-93
2022/01/15 04:22:42;;;;;;;32.47;13.15;;;-1.00;99.90;;;;;;4974393;28;20122;-92
2022/01/15 04:25:09;;;;;;;30.55;13.02;;;-0.90;99.90;;;;;;4974159;28;20499;-92
2022/01/15 04:27:35;;;;;;;35.22;13.23;;;-0.90;99.90;;;;;;4974659;28;20481;-93
2022/01/15 04:30:03;;;;;;;34.70;12.75;;;-0.90;99.90;;;;;;4974964;28;20039;-92
2022/01/15 04:32:30;;;;;;;38.05;14.65;;;-0.90;99.90;;;;;;4981281;28;20142;-92
2022/01/15 04:34:56;;;;;;;30.60;13.10;;;-0.90;99.90;;;;;;4990316;28;20029;-92
2022/01/15 04:37:24;;;;;;;32.42;12.90;;;-0.90;99.90;;;;;;4977766;28;20499;-93
2022/01/15 04:39:51;;;;;;;31.25;12.73;;;-0.90;99.90;;;;;;4973866;28;20031;-93
2022/01/15 04:42:20;;;;;;;32.63;12.95;;;-0.90;99.90;;;;;;4973821;28;20030;-92
2022/01/15 04:44:46;;;;;;;31.35;12.52;;;-1.00;99.90;;;;;;4973595;28;20043;-92
2022/01/15 04:47:12;;;;;;;27.80;11.75;;;-0.90;99.90;;;;;;4973775;28;20035;-93
2022/01/15 04:49:38;;;;;;;30.98;13.75;;;-1.00;99.90;;;;;;4974172;28;20027;-93
2022/01/15 04:52:04;;;;;;;42.47;15.25;;;-1.00;99.90;;;;;;4975214;28;20113;-94
2022/01/15 04:54:30;;;;;;;36.58;14.45;;;-1.00;99.90;;;;;;4974716;28;20026;-93
2022/01/15 04:56:55;;;;;;;33.33;14.68;;;-1.00;99.90;;;;;;4977035;28;20042;-93
2022/01/15 04:59:23;;;;;;;34.03;13.48;;;-1.00;99.90;;;;;;4977527;28;20023;-91
2022/01/15 05:01:50;;;;;;;33.28;13.90;;;-1.00;99.90;;;;;;4977532;28;20027;-92
2022/01/15 05:04:17;;;;;;;31.80;13.45;;;-1.00;99.90;;;;;;4977218;28;20042;-92
2022/01/15 05:06:43;;;;;;;28.48;11.77;;;-1.00;99.90;;;;;;4977225;28;20503;-93
2022/01/15 05:09:09;;;;;;;31.77;13.25;;;-1.00;99.90;;;;;;4976828;28;20042;-91
2022/01/15 05:11:58;;;;;;;36.45;15.07;;;-1.00;99.90;;;;;;4977235;28;20050;-92
2022/01/15 05:14:24;;;;;;;30.33;13.13;;;-1.00;99.90;;;;;;4977065;28;20061;-93
2022/01/15 05:16:50;;;;;;;33.75;14.30;;;-1.10;99.90;;;;;;4977383;28;20076;-92
2022/01/15 05:19:15;;;;;;;36.08;14.00;;;-1.10;99.90;;;;;;4968466;28;20037;-93
2022/01/15 05:21:41;;;;;;;31.88;12.68;;;-1.00;99.90;;;;;;4972609;28;20100;-93
2022/01/15 05:24:07;;;;;;;34.15;13.57;;;-1.10;99.90;;;;;;4976568;28;20527;-94
2022/01/15 05:26:34;;;;;;;26.60;11.70;;;-1.10;99.90;;;;;;4971354;28;20038;-93
2022/01/15 05:28:59;;;;;;;28.70;11.88;;;-1.10;99.90;;;;;;4966270;28;20681;-92
2022/01/15 05:31:25;;;;;;;29.55;11.45;;;-1.10;99.90;;;;;;4967924;28;20027;-94
2022/01/15 05:33:52;;;;;;;29.23;11.25;;;-1.10;99.90;;;;;;4985721;28;20030;-93
2022/01/15 05:36:18;;;;;;;24.00;11.02;;;-1.00;99.90;;;;;;4970604;28;20046;-92
2022/01/15 05:38:44;;;;;;;25.73;11.20;;;-1.10;99.90;;;;;;4971201;28;20030;-92
2022/01/15 05:41:10;;;;;;;24.35;11.98;;;-1.10;99.90;;;;;;4968176;28;20496;-93
2022/01/15 05:43:35;;;;;;;29.35;10.77;;;-1.10;99.90;;;;;;4963081;28;20057;-92
2022/01/15 05:46:01;;;;;;;25.13;10.60;;;-1.20;99.90;;;;;;4960239;28;20373;-93
2022/01/15 05:48:27;;;;;;;32.78;11.88;;;-1.10;99.90;;;;;;4960694;28;20489;-93
2022/01/15 05:50:53;;;;;;;26.00;11.80;;;-1.20;99.90;;;;;;4960472;28;20481;-92
2022/01/15 05:53:19;;;;;;;33.03;12.35;;;-1.20;99.90;;;;;;4960318;28;20102;-93
2022/01/15 05:55:44;;;;;;;30.33;13.13;;;-1.20;99.90;;;;;;4960403;28;20037;-91
2022/01/15 05:58:10;;;;;;;34.45;11.70;;;-1.20;99.90;;;;;;4960507;28;20050;-92
2022/01/15 06:00:36;;;;;;;29.23;11.90;;;-1.20;99.90;;;;;;4960484;28;20097;-93
2022/01/15 06:03:02;;;;;;;33.38;12.85;;;-1.20;99.90;;;;;;4963374;28;20392;-93
2022/01/15 06:05:28;;;;;;;33.90;11.95;;;-1.30;99.90;;;;;;4968983;28;20101;-94
2022/01/15 06:07:54;;;;;;;29.60;11.32;;;-1.30;99.90;;;;;;4962166;28;20034;-93
2022/01/15 06:10:20;;;;;;;25.55;11.07;;;-1.30;99.90;;;;;;4959881;28;20054;-92
2022/01/15 06:12:46;;;;;;;24.48;10.20;;;-1.30;99.90;;;;;;4960168;28;20027;-92
2022/01/15 06:15:14;;;;;;;30.20;11.55;;;-1.40;99.90;;;;;;4960294;28;20031;-93
2022/01/15 06:17:40;;;;;;;30.15;11.23;;;-1.40;99.90;;;;;;4962559;28;20034;-91
2022/01/15 06:20:07;;;;;;;31.50;13.05;;;-1.40;99.90;;;;;;4970495;28;20086;-92
2022/01/15 06:22:33;;;;;;;31.25;13.00;;;-1.40;99.90;;;;;;4959932;28;20045;-92
2022/01/15 06:24:58;;;;;;;26.90;11.60;;;-1.40;99.90;;;;;;4960096;28;20042;-93
2022/01/15 06:27:24;;;;;;;27.60;11.05;;;-1.40;99.90;;;;;;4960342;28;20478;-91
2022/01/15 06:29:50;;;;;;;29.73;11.38;;;-1.50;99.90;;;;;;4962167;28;20031;-94
2022/01/15 06:32:15;;;;;;;28.50;10.15;;;-1.50;99.90;;;;;;4967114;28;20062;-93
2022/01/15 06:34:41;;;;;;;27.90;11.55;;;-1.50;99.90;;;;;;4967897;28;20507;-92
2022/01/15 06:37:07;;;;;;;25.83;10.75;;;-1.50;99.90;;;;;;4965359;28;20031;-92
2022/01/15 06:39:34;;;;;;;29.80;12.02;;;-1.50;99.90;;;;;;4961486;28;20508;-92
2022/01/15 06:42:00;;;;;;;31.50;11.57;;;-1.60;99.90;;;;;;4960558;28;20115;-92
2022/01/15 06:44:26;;;;;;;33.42;13.20;;;-1.60;99.90;;;;;;4960033;28;20066;-92
2022/01/15 06:46:52;;;;;;;32.38;12.45;;;-1.60;99.90;;;;;;4959485;28;20062;-93
2022/01/15 06:49:18;;;;;;;32.22;12.07;;;-1.70;99.90;;;;;;4959380;28;20023;-92
2022/01/15 06:51:43;;;;;;;35.97;14.30;;;-1.70;99.90;;;;;;4959385;28;20045;-92
2022/01/15 06:54:09;;;;;;;33.53;13.40;;;-1.70;99.90;;;;;;4959187;28;20027;-93
2022/01/15 06:56:35;;;;;;;26.35;12.38;;;-1.70;99.90;;;;;;4959029;28;20057;-91
2022/01/15 06:59:01;;;;;;;29.60;12.27;;;-1.70;99.90;;;;;;4966265;28;20030;-91
2022/01/15 07:01:26;;;;;;;25.58;11.27;;;-1.70;99.90;;;;;;4970055;28;20154;-90
2022/01/15 07:03:52;;;;;;;34.17;12.52;;;-1.70;99.90;;;;;;4966354;28;20018;-90
2022/01/15 07:06:18;;;;;;;28.25;11.38;;;-1.70;99.90;;;;;;4967102;28;20065;-90
2022/01/15 07:08:43;;;;;;;32.60;12.05;;;-1.70;99.90;;;;;;4968669;28;20034;-91
2022/01/15 07:11:09;;;;;;;34.00;12.98;;;-1.80;99.90;;;;;;4964971;28;20046;-91
2022/01/15 07:13:35;;;;;;;25.85;11.50;;;-1.70;99.90;;;;;;4967971;28;20391;-91
2022/01/15 07:16:01;;;;;;;29.13;11.90;;;-1.80;99.90;;;;;;4968631;28;20026;-91
2022/01/15 07:18:27;;;;;;;32.22;12.30;;;-1.80;99.90;;;;;;4970043;28;20026;-90
2022/01/15 07:20:53;;;;;;;29.77;11.57;;;-1.80;99.90;;;;;;4968463;28;20037;-91
2022/01/15 07:23:19;;;;;;;27.75;11.15;;;-1.70;99.90;;;;;;4969051;28;20037;-90
2022/01/15 07:25:45;;;;;;;27.67;12.38;;;-1.70;99.90;;;;;;4971443;28;20089;-90
2022/01/15 07:28:11;;;;;;;26.48;11.07;;;-1.60;99.90;;;;;;4966913;28;20122;-90
2022/01/15 07:30:36;;;;;;;26.48;10.85;;;-1.60;99.90;;;;;;4978918;28;20069;-90
2022/01/15 07:33:02;;;;;;;27.75;10.93;;;-1.60;99.90;;;;;;4982937;28;20023;-91
2022/01/15 07:35:28;;;;;;;27.55;11.40;;;-1.60;99.90;;;;;;4986388;28;20018;-91
2022/01/15 07:37:56;;;;;;;23.15;10.70;;;-1.50;99.90;;;;;;4978942;28;20046;-91
2022/01/15 07:40:22;;;;;;;26.65;11.05;;;-1.50;99.90;;;;;;4969718;28;20030;-92
2022/01/15 07:42:48;;;;;;;31.02;11.88;;;-1.50;99.90;;;;;;4964751;28;20113;-94
2022/01/15 07:45:16;;;;;;;31.90;13.55;;;-1.50;99.90;;;;;;4965666;28;20126;-89
2022/01/15 07:47:43;;;;;;;40.88;14.75;;;-1.50;99.90;;;;;;4965397;28;20034;-90
2022/01/15 07:50:11;;;;;;;38.35;14.48;;;-1.50;99.90;;;;;;4965519;28;20026;-91
2022/01/15 07:52:37;;;;;;;34.58;14.18;;;-1.60;99.90;;;;;;4965932;28;20023;-90
2022/01/15 07:55:05;;;;;;;40.80;15.45;;;-1.60;99.90;;;;;;4967247;28;20486;-90
2022/01/15 07:57:31;;;;;;;32.08;14.18;;;-1.70;99.90;;;;;;4984201;28;20046;-91
2022/01/15 07:59:57;;;;;;;37.42;14.38;;;-1.80;99.90;;;;;;4970103;28;20508;-91
2022/01/15 08:02:22;;;;;;;35.55;14.80;;;-1.80;99.90;;;;;;4965257;28;20031;-91
2022/01/15 08:04:51;;;;;;;42.95;16.63;;;-1.80;99.90;;;;;;4970430;28;20022;-90
2022/01/15 08:07:18;;;;;;;39.40;15.30;;;-1.90;99.90;;;;;;4966476;28;20118;-90
2022/01/15 08:09:47;;;;;;;39.15;13.75;;;-1.90;99.90;;;;;;4967795;28;20488;-88
2022/01/15 08:12:13;;;;;;;39.75;15.63;;;-1.90;99.90;;;;;;4968094;28;20030;-90
2022/01/15 08:14:38;;;;;;;31.27;13.95;;;-2.00;99.90;;;;;;4970190;28;20026;-92
2022/01/15 08:17:04;;;;;;;29.58;12.63;;;-2.00;99.90;;;;;;4957356;28;20366;-89
2022/01/15 08:19:30;;;;;;;28.77;11.48;;;-2.00;99.90;;;;;;4961391;28;20033;-89
2022/01/15 08:21:55;;;;;;;27.75;10.70;;;-2.00;99.90;;;;;;4966217;28;20022;-89
2022/01/15 08:24:21;;;;;;;27.63;11.63;;;-2.00;99.90;;;;;;4964869;28;20019;-90
2022/01/15 08:26:47;;;;;;;36.33;11.50;;;-2.00;99.90;;;;;;4969658;28;20034;-91
2022/01/15 08:29:16;;;;;;;29.75;11.60;;;-2.00;99.90;;;;;;4970901;28;20022;-91
2022/01/15 08:31:41;;;;;;;29.83;11.90;;;-2.00;99.90;;;;;;4975487;28;20033;-91
2022/01/15 08:34:10;;;;;;;28.75;11.50;;;-1.90;99.90;;;;;;4976295;28;20476;-94
2022/01/15 08:36:36;;;;;;;27.00;10.98;;;-2.00;99.90;;;;;;4971507;28;20023;-93
2022/01/15 08:39:07;;;;;;;31.08;12.23;;;-2.00;99.90;;;;;;4971879;28;20038;-92
2022/01/15 08:41:40;;;;;;;33.00;13.00;;;-2.00;99.90;;;;;;4979888;28;20109;-91
2022/01/15 08:44:06;;;;;;;30.08;12.23;;;-2.00;99.90;;;;;;4972188;28;20030;-90
2022/01/15 08:46:32;;;;;;;27.52;11.07;;;-2.00;99.90;;;;;;4970500;28;20049;-88
2022/01/15 08:48:58;;;;;;;35.05;12.25;;;-2.00;99.90;;;;;;4961483;28;20038;-89
2022/01/15 08:51:24;;;;;;;32.92;12.25;;;-2.00;99.90;;;;;;4968885;28;20030;-90
2022/01/15 08:53:50;;;;;;;32.00;11.07;;;-2.00;99.90;;;;;;4980679;28;20035;-90
2022/01/15 08:56:15;;;;;;;38.25;12.77;;;-2.00;99.90;;;;;;4981009;28;20129;-90
2022/01/15 08:58:41;;;;;;;36.47;13.38;;;-2.00;99.90;;;;;;4980582;28;20448;-91
2022/01/15 09:01:13;;;;;;;33.80;13.82;;;-2.00;99.90;;;;;;4980794;28;20034;-91
2022/01/15 09:03:40;;;;;;;35.55;13.32;;;-2.00;99.90;;;;;;4980831;28;20034;-91
2022/01/15 09:06:05;;;;;;;37.50;13.70;;;-2.00;99.90;;;;;;4981189;28;20100;-90
2022/01/15 09:08:31;;;;;;;42.85;15.90;;;-1.90;99.90;;;;;;4982455;28;20022;-90
2022/01/15 09:10:57;;;;;;;34.20;15.40;;;-2.00;99.90;;;;;;4992572;28;20046;-89
2022/01/15 09:13:22;;;;;;;40.20;17.17;;;-2.00;99.90;;;;;;5007906;28;20112;-90
2022/01/15 09:15:50;;;;;;;49.25;17.38;;;-1.90;99.90;;;;;;4987369;28;20046;-92
2022/01/15 09:18:17;;;;;;;42.15;17.50;;;-1.90;99.90;;;;;;4984353;28;20439;-91
2022/01/15 09:20:43;;;;;;;46.75;17.08;;;-1.90;99.90;;;;;;4981988;28;20076;-91
2022/01/15 09:23:09;;;;;;;44.47;16.20;;;-1.90;99.90;;;;;;4981375;28;20029;-90
2022/01/15 09:25:35;;;;;;;51.55;20.48;;;-1.80;99.90;;;;;;4981277;28;20034;-91
2022/01/15 09:30:45;;;;;;;56.45;22.55;;;-1.70;99.90;;;;;;4997983;28;20117;-90
2022/01/15 09:33:10;;;;;;;81.32;33.75;;;-1.60;99.90;;;;;;4980080;28;20030;-91
2022/01/15 09:35:37;;;;;;;64.97;29.48;;;-1.50;99.90;;;;;;4979931;28;20030;-91
2022/01/15 09:38:04;;;;;;;54.35;24.50;;;-1.30;99.90;;;;;;4980492;28;20077;-91
2022/01/15 09:40:29;;;;;;;64.32;27.75;;;-1.20;99.90;;;;;;4979436;28;20484;-91
2022/01/15 09:42:56;;;;;;;62.75;28.30;;;-1.00;99.90;;;;;;4979499;28;20039;-92
2022/01/15 09:45:23;;;;;;;51.33;22.73;;;-0.90;99.90;;;;;;4979979;28;20038;-92
2022/01/15 09:48:00;;;;;;;55.35;22.48;;;-0.70;99.90;;;;;;4980526;28;20038;-90
2022/01/15 09:50:29;;;;;;;52.08;19.95;;;-0.40;99.90;;;;;;4988166;28;20026;-90
2022/01/15 09:52:55;;;;;;;37.08;16.15;;;-0.10;99.90;;;;;;4979691;28;20022;-92
2022/01/15 09:55:22;;;;;;;39.00;15.48;;;0.10;99.90;;;;;;4980155;28;20499;-92
2022/01/15 09:57:49;;;;;;;35.42;16.33;;;0.50;99.90;;;;;;4980043;28;20080;-91
2022/01/15 10:00:20;;;;;;;39.55;14.60;;;0.80;99.90;;;;;;4979389;28;20034;-92
2022/01/15 10:02:49;;;;;;;30.15;13.52;;;1.10;99.90;;;;;;4979663;28;20061;-93
2022/01/15 10:05:16;;;;;;;32.22;12.82;;;1.40;99.90;;;;;;4979476;28;20031;-93
2022/01/15 10:08:10;;;;;;;24.50;11.80;;;1.80;99.90;;;;;;4979321;28;20045;-93
2022/01/15 10:10:38;;;;;;;27.90;12.23;;;2.10;99.90;;;;;;4979575;28;20043;-94
2022/01/15 10:13:13;;;;;;;26.23;12.30;;;2.40;99.90;;;;;;4979174;28;20030;-94
2022/01/15 10:15:39;;;;;;;31.50;12.57;;;2.70;99.90;;;;;;4979380;28;20034;-94
2022/01/15 10:18:27;;;;;;;25.65;12.13;;;2.90;99.90;;;;;;4978954;28;20034;-93
2022/01/15 10:20:55;;;;;;;31.60;11.25;;;3.10;99.90;;;;;;4979314;28;20048;-94
2022/01/15 10:23:23;;;;;;;30.80;12.38;;;3.30;99.90;;;;;;4979122;28;20561;-93
2022/01/15 10:26:18;;;;;;;31.63;11.75;;;3.50;99.90;;;;;;4979317;28;20038;-94
2022/01/15 10:28:53;;;;;;;39.53;12.68;;;3.70;99.90;;;;;;4979400;28;20038;-93
2022/01/15 10:31:21;;;;;;;28.90;11.40;;;3.80;99.90;;;;;;4979946;28;20041;-94
2022/01/15 10:33:47;;;;;;;34.55;11.18;;;4.00;99.90;;;;;;4980111;28;20176;-95
2022/01/15 10:36:23;;;;;;;26.83;11.73;;;4.10;99.90;;;;;;4980692;28;20126;-93
2022/01/15 10:38:49;;;;;;;26.38;10.27;;;4.30;99.90;;;;;;4984159;28;20036;-96
2022/01/15 10:41:50;;;;;;;19.40;9.43;;;4.40;99.90;;;;;;4983828;28;20554;-92
2022/01/15 10:44:33;;;;;;;23.85;11.60;;;4.50;99.90;;;;;;4891501;29;20053;-94
2022/01/15 10:47:12;;;;;;;36.28;13.98;;;4.80;99.90;;;;;;4902780;29;20526;-94
2022/01/15 10:49:40;;;;;;;26.98;12.15;;;4.90;99.90;;;;;;4905700;29;20108;-94
2022/01/15 10:52:18;;;;;;;32.88;12.70;;;5.00;99.90;;;;;;4895916;29;20072;-93
2022/01/15 10:55:09;;;;;;;33.55;13.50;;;5.10;99.90;;;;;;4897357;29;20092;-95
2022/01/15 10:57:44;;;;;;;21.95;9.93;;;5.00;99.90;;;;;;4895748;29;20040;-94
2022/01/15 11:00:12;;;;;;;24.23;11.68;;;4.80;99.90;;;;;;4908049;29;20178;-94
2022/01/15 11:02:42;;;;;;;25.42;11.85;;;4.50;99.90;;;;;;4890888;29;20032;-91
2022/01/15 11:05:29;;;;;;;43.45;16.92;;;4.20;99.90;;;;;;4888883;29;20069;-94
2022/01/15 11:08:27;;;;;;;26.95;12.48;;;3.90;99.90;;;;;;4889402;29;20028;-93
2022/01/15 11:11:01;;;;;;;26.50;11.70;;;3.70;99.90;;;;;;4887190;29;20434;-95
2022/01/15 11:13:32;;;;;;;23.92;11.73;;;3.60;99.90;;;;;;4887460;29;20056;-94
2022/01/15 11:16:01;;;;;;;26.95;11.70;;;3.40;99.90;;;;;;4883926;29;20052;-93
2022/01/15 11:18:31;;;;;;;30.67;13.18;;;3.30;99.90;;;;;;4939934;28;20121;-94
2022/01/15 11:21:02;;;;;;;20.00;10.80;;;3.20;99.90;;;;;;4979074;28;20023;-94
2022/01/15 11:23:32;;;;;;;30.25;11.60;;;3.10;99.90;;;;;;4979007;28;20361;-94
2022/01/15 11:26:00;;;;;;;29.60;13.10;;;2.90;99.90;;;;;;4979173;28;20092;-93
2022/01/15 11:28:29;;;;;;;24.92;12.00;;;2.90;99.90;;;;;;4978583;28;20034;-93
2022/01/15 11:31:02;;;;;;;29.00;11.93;;;2.70;99.90;;;;;;4977939;28;20076;-92
2022/01/15 11:33:31;;;;;;;30.58;12.65;;;2.70;99.90;;;;;;4977844;28;20018;-94
2022/01/15 11:35:57;;;;;;;27.80;12.32;;;2.50;99.90;;;;;;4981291;28;20122;-94
2022/01/15 11:38:44;;;;;;;24.90;12.23;;;2.50;99.90;;;;;;4998261;28;20050;-93
2022/01/15 11:41:22;;;;;;;29.77;13.20;;;2.40;99.90;;;;;;4980896;28;20085;-93
2022/01/15 11:43:50;;;;;;;27.00;11.90;;;2.30;99.90;;;;;;4981453;28;20023;-93
2022/01/15 11:47:04;;;;;;;29.83;12.75;;;2.20;99.90;;;;;;4982232;28;20058;-93
2022/01/15 11:49:42;;;;;;;30.73;13.20;;;2.20;99.90;;;;;;4978668;28;20481;-92
2022/01/15 11:52:11;;;;;;;27.08;12.75;;;2.10;99.90;;;;;;4985459;28;20026;-93
2022/01/15 11:54:41;;;;;;;38.88;13.70;;;2.10;99.90;;;;;;4986944;28;20034;-92
2022/01/15 11:57:29;;;;;;;26.63;11.95;;;2.00;99.90;;;;;;4984306;28;20030;-92
2022/01/15 11:59:57;;;;;;;29.40;12.85;;;2.00;99.90;;;;;;4982788;28;20495;-93
2022/01/15 12:02:39;;;;;;;32.30;13.55;;;2.00;99.90;;;;;;4979110;28;20035;-93
2022/01/15 12:05:17;;;;;;;31.83;13.32;;;2.00;99.90;;;;;;4978011;28;20133;-92
2022/01/15 12:08:08;;;;;;;29.25;12.52;;;2.00;99.90;;;;;;4978888;28;20142;-91
2022/01/15 12:10:54;;;;;;;41.30;14.82;;;2.00;99.90;;;;;;4962324;28;20055;-93
2022/01/15 12:13:26;;;;;;;41.97;15.27;;;2.10;99.90;;;;;;4958909;28;20038;-92
2022/01/15 12:16:24;;;;;;;38.38;15.70;;;2.40;99.90;;;;;;4958765;28;20118;-92
2022/01/15 12:18:51;;;;;;;29.52;13.68;;;3.00;99.90;;;;;;4958635;28;20023;-91
2022/01/15 12:21:50;;;;;;;32.30;13.70;;;3.80;99.90;;;;;;4959208;28;20034;-93
2022/01/15 12:24:38;;;;;;;62.15;24.33;;;4.60;99.90;;;;;;4965952;28;20026;-93
2022/01/15 12:27:07;;;;;;;108.80;37.58;;;5.30;99.90;;;;;;4980259;28;20041;-93
2022/01/15 12:29:34;;;;;;;31.17;13.95;;;5.80;99.90;;;;;;4968886;28;20322;-95
2022/01/15 12:31:59;;;;;;;44.05;18.40;;;6.30;99.90;;;;;;4960383;28;20037;-94
2022/01/15 12:34:27;;;;;;;35.97;15.20;;;6.80;99.90;;;;;;4960505;28;20036;-95
2022/01/15 12:36:53;;;;;;;33.30;14.68;;;7.10;99.90;;;;;;4959841;28;20022;-93
2022/01/15 12:39:38;;;;;;;28.05;13.93;;;7.40;99.90;;;;;;4959277;28;20153;-94
2022/01/15 12:42:08;;;;;;;24.63;12.05;;;7.90;99.90;;;;;;4959390;28;20031;-94
2022/01/15 12:44:54;;;;;;;25.98;13.13;;;8.10;99.90;;;;;;4961234;28;20022;-94
2022/01/15 12:47:21;;;;;;;23.60;11.18;;;8.40;99.90;;;;;;4959434;28;20519;-93
2022/01/15 12:49:54;;;;;;;29.85;13.27;;;8.40;99.90;;;;;;4958973;28;20023;-93
2022/01/15 12:52:25;;;;;;;24.20;12.82;;;8.30;99.90;;;;;;4959363;28;20031;-92
2022/01/15 12:54:54;;;;;;;25.15;12.75;;;8.00;99.90;;;;;;4959237;28;20023;-92
2022/01/15 12:57:43;;;;;;;25.25;12.98;;;7.60;99.90;;;;;;4958940;28;20133;-92
2022/01/15 13:00:21;;;;;;;26.52;13.00;;;7.20;99.90;;;;;;4959584;28;20050;-92
2022/01/15 13:02:48;;;;;;;25.17;12.65;;;6.80;99.90;;;;;;4960466;28;20034;-93
2022/01/15 13:05:17;;;;;;;31.05;13.90;;;6.40;99.90;;;;;;4961090;28;20117;-93